Terminal Aerodrome Forecast
Issued by NWS

Home | Current Version | Previous Version | Text Only | Print | Product List | Glossary On
Versions: 1 2 3 4 5 6 7 8 9 10 11 12 13 14 15 16 17 18 19 20 21 22 23 24 25
622
FTUS43 KABR 121615 AAA
TAFMBG
TAF AMD
KMBG 121615Z 1216/1312 01013KT P6SM BKN014
     FM121800 02011KT P6SM BKN040
     FM130000 11010KT P6SM OVC250
     FM130600 13015KT P6SM OVC050=

USA.gov is the U.S. government's official web portal to all federal, state and local government web resources and services.